sensor_id;sensor_type;location;lat;lon;timestamp;pressure;altitude;pressure_sealevel;temperature;humidity
56831;BME280;42713;42.676;23.352;2024-01-16T00:00:34;93264.56;;;1.77;69.59
56831;BME280;42713;42.676;23.352;2024-01-16T00:02:59;93270.50;;;1.78;69.76
56831;BME280;42713;42.676;23.352;2024-01-16T00:05:25;93268.16;;;1.76;69.90
56831;BME280;42713;42.676;23.352;2024-01-16T00:07:51;93304.06;;;1.78;70.13
56831;BME280;42713;42.676;23.352;2024-01-16T00:10:16;93304.28;;;1.76;70.56
56831;BME280;42713;42.676;23.352;2024-01-16T00:12:42;93304.63;;;1.80;70.31
56831;BME280;42713;42.676;23.352;2024-01-16T00:15:08;93310.13;;;1.83;70.35
56831;BME280;42713;42.676;23.352;2024-01-16T00:17:34;93305.78;;;1.84;69.86
56831;BME280;42713;42.676;23.352;2024-01-16T00:20:00;93300.94;;;1.88;69.76
56831;BME280;42713;42.676;23.352;2024-01-16T00:22:27;93294.53;;;1.90;69.72
56831;BME280;42713;42.676;23.352;2024-01-16T00:24:52;93301.63;;;1.95;69.78
56831;BME280;42713;42.676;23.352;2024-01-16T00:27:18;93302.75;;;1.99;70.20
56831;BME280;42713;42.676;23.352;2024-01-16T00:29:43;93303.88;;;2.03;69.80
56831;BME280;42713;42.676;23.352;2024-01-16T00:32:09;93304.66;;;2.04;69.41
56831;BME280;42713;42.676;23.352;2024-01-16T00:34:34;93307.78;;;1.94;69.53
56831;BME280;42713;42.676;23.352;2024-01-16T00:37:00;93315.88;;;1.85;70.37
56831;BME280;42713;42.676;23.352;2024-01-16T00:39:25;93308.13;;;1.85;70.33
56831;BME280;42713;42.676;23.352;2024-01-16T00:41:51;93308.69;;;1.88;70.89
56831;BME280;42713;42.676;23.352;2024-01-16T00:44:16;93315.75;;;1.92;71.38
56831;BME280;42713;42.676;23.352;2024-01-16T00:46:42;93320.03;;;1.98;71.38
56831;BME280;42713;42.676;23.352;2024-01-16T00:49:07;93319.25;;;1.98;71.13
56831;BME280;42713;42.676;23.352;2024-01-16T00:51:33;93297.94;;;2.02;71.27
56831;BME280;42713;42.676;23.352;2024-01-16T00:53:58;93325.44;;;2.09;71.69
56831;BME280;42713;42.676;23.352;2024-01-16T00:56:24;93330.94;;;2.12;71.93
56831;BME280;42713;42.676;23.352;2024-01-16T00:58:52;93323.19;;;2.12;71.81
56831;BME280;42713;42.676;23.352;2024-01-16T01:01:19;93340.06;;;2.15;72.26
56831;BME280;42713;42.676;23.352;2024-01-16T01:03:45;93336.31;;;2.11;72.98
56831;BME280;42713;42.676;23.352;2024-01-16T01:06:11;93343.97;;;2.17;72.66
56831;BME280;42713;42.676;23.352;2024-01-16T01:08:37;93359.13;;;2.14;72.51
56831;BME280;42713;42.676;23.352;2024-01-16T01:11:02;93357.91;;;2.16;72.68
56831;BME280;42713;42.676;23.352;2024-01-16T01:13:28;93365.06;;;2.14;72.12
56831;BME280;42713;42.676;23.352;2024-01-16T01:15:54;93350.38;;;2.15;71.97
56831;BME280;42713;42.676;23.352;2024-01-16T01:18:19;93329.25;;;2.18;72.35
56831;BME280;42713;42.676;23.352;2024-01-16T01:20:45;93332.63;;;2.18;72.95
56831;BME280;42713;42.676;23.352;2024-01-16T01:23:10;93348.25;;;2.24;72.58
56831;BME280;42713;42.676;23.352;2024-01-16T01:25:36;93350.03;;;2.23;72.88
56831;BME280;42713;42.676;23.352;2024-01-16T01:28:01;93327.69;;;2.29;73.29
56831;BME280;42713;42.676;23.352;2024-01-16T01:30:27;93330.81;;;2.31;72.94
56831;BME280;42713;42.676;23.352;2024-01-16T01:32:52;93339.03;;;2.28;72.60
56831;BME280;42713;42.676;23.352;2024-01-16T01:35:18;93325.56;;;2.26;72.28
56831;BME280;42713;42.676;23.352;2024-01-16T01:37:45;93333.63;;;2.29;72.83
56831;BME280;42713;42.676;23.352;2024-01-16T01:40:11;93333.31;;;2.26;72.70
56831;BME280;42713;42.676;23.352;2024-01-16T01:42:38;93332.06;;;2.28;72.41
56831;BME280;42713;42.676;23.352;2024-01-16T01:45:06;93329.81;;;2.32;72.46
56831;BME280;42713;42.676;23.352;2024-01-16T01:47:32;93324.53;;;2.27;72.74
56831;BME280;42713;42.676;23.352;2024-01-16T01:49:58;93324.66;;;2.20;72.49
56831;BME280;42713;42.676;23.352;2024-01-16T01:52:23;93332.72;;;2.24;72.65
56831;BME280;42713;42.676;23.352;2024-01-16T01:54:50;93326.00;;;2.23;72.76
56831;BME280;42713;42.676;23.352;2024-01-16T01:57:17;93344.53;;;2.31;73.18
56831;BME280;42713;42.676;23.352;2024-01-16T01:59:43;93347.69;;;2.33;72.50
56831;BME280;42713;42.676;23.352;2024-01-16T02:02:10;93325.22;;;2.34;73.12
56831;BME280;42713;42.676;23.352;2024-01-16T02:04:36;93322.19;;;2.37;73.13
56831;BME280;42713;42.676;23.352;2024-01-16T02:07:02;93335.69;;;2.39;72.89
56831;BME280;42713;42.676;23.352;2024-01-16T02:09:29;93330.03;;;2.42;72.57
56831;BME280;42713;42.676;23.352;2024-01-16T02:11:54;93310.16;;;2.43;73.43
56831;BME280;42713;42.676;23.352;2024-01-16T02:14:20;93343.66;;;2.49;73.54
56831;BME280;42713;42.676;23.352;2024-01-16T02:16:45;93352.94;;;2.51;73.68
56831;BME280;42713;42.676;23.352;2024-01-16T02:19:11;93333.84;;;2.52;73.50
56831;BME280;42713;42.676;23.352;2024-01-16T02:21:39;93348.00;;;2.49;73.59
56831;BME280;42713;42.676;23.352;2024-01-16T02:24:08;93347.47;;;2.59;73.89
56831;BME280;42713;42.676;23.352;2024-01-16T02:26:35;93355.75;;;2.61;73.76
56831;BME280;42713;42.676;23.352;2024-01-16T02:29:01;93358.91;;;2.63;73.62
56831;BME280;42713;42.676;23.352;2024-01-16T02:31:27;93348.81;;;2.61;74.18
56831;BME280;42713;42.676;23.352;2024-01-16T02:33:55;93379.59;;;2.63;74.33
56831;BME280;42713;42.676;23.352;2024-01-16T02:36:20;93356.88;;;2.65;74.72
56831;BME280;42713;42.676;23.352;2024-01-16T02:38:47;93369.91;;;2.70;74.50
56831;BME280;42713;42.676;23.352;2024-01-16T02:41:16;93371.97;;;2.68;74.42
56831;BME280;42713;42.676;23.352;2024-01-16T02:43:42;93373.06;;;2.72;74.08
56831;BME280;42713;42.676;23.352;2024-01-16T02:46:08;93383.72;;;2.76;74.16
56831;BME280;42713;42.676;23.352;2024-01-16T02:48:36;93395.22;;;2.80;74.59
56831;BME280;42713;42.676;23.352;2024-01-16T02:51:03;93399.56;;;2.79;74.36
56831;BME280;42713;42.676;23.352;2024-01-16T02:53:29;93412.41;;;2.74;74.29
56831;BME280;42713;42.676;23.352;2024-01-16T02:55:55;93416.22;;;2.60;74.89
56831;BME280;42713;42.676;23.352;2024-01-16T02:58:23;93433.53;;;2.47;75.50
56831;BME280;42713;42.676;23.352;2024-01-16T03:00:49;93450.28;;;2.45;75.86
56831;BME280;42713;42.676;23.352;2024-01-16T03:03:16;93447.91;;;2.43;77.00
56831;BME280;42713;42.676;23.352;2024-01-16T03:05:42;93445.31;;;2.43;76.73
56831;BME280;42713;42.676;23.352;2024-01-16T03:08:07;93453.41;;;2.47;76.88
56831;BME280;42713;42.676;23.352;2024-01-16T03:10:33;93464.75;;;2.46;77.41
56831;BME280;42713;42.676;23.352;2024-01-16T03:12:58;93469.25;;;2.51;76.60
56831;BME280;42713;42.676;23.352;2024-01-16T03:15:24;93478.38;;;2.53;77.17
56831;BME280;42713;42.676;23.352;2024-01-16T03:17:50;93489.63;;;2.59;79.26
56831;BME280;42713;42.676;23.352;2024-01-16T03:20:17;93502.66;;;2.64;80.22
56831;BME280;42713;42.676;23.352;2024-01-16T03:22:43;93513.00;;;2.76;84.66
56831;BME280;42713;42.676;23.352;2024-01-16T03:25:28;93510.31;;;2.94;87.12
56831;BME280;42713;42.676;23.352;2024-01-16T03:27:53;93512.72;;;2.96;87.77
56831;BME280;42713;42.676;23.352;2024-01-16T03:30:19;93535.75;;;2.98;89.39
56831;BME280;42713;42.676;23.352;2024-01-16T03:32:44;93538.91;;;3.00;90.32
56831;BME280;42713;42.676;23.352;2024-01-16T03:35:10;93523.06;;;2.96;90.74
56831;BME280;42713;42.676;23.352;2024-01-16T03:37:37;93544.56;;;3.08;90.28
56831;BME280;42713;42.676;23.352;2024-01-16T03:40:04;93540.38;;;3.07;90.00
56831;BME280;42713;42.676;23.352;2024-01-16T03:42:29;93551.50;;;3.08;90.28
56831;BME280;42713;42.676;23.352;2024-01-16T03:44:55;93585.13;;;3.08;89.68
56831;BME280;42713;42.676;23.352;2024-01-16T03:47:20;93576.38;;;2.97;89.91
56831;BME280;42713;42.676;23.352;2024-01-16T03:49:46;93575.22;;;2.93;90.08
56831;BME280;42713;42.676;23.352;2024-01-16T03:52:12;93581.28;;;2.87;90.25
56831;BME280;42713;42.676;23.352;2024-01-16T03:54:37;93576.44;;;2.78;89.99
56831;BME280;42713;42.676;23.352;2024-01-16T03:57:03;93570.78;;;2.70;89.20
56831;BME280;42713;42.676;23.352;2024-01-16T03:59:28;93590.47;;;2.71;88.94
56831;BME280;42713;42.676;23.352;2024-01-16T04:01:54;93595.06;;;2.69;88.46
56831;BME280;42713;42.676;23.352;2024-01-16T04:04:19;93640.56;;;2.58;87.57
56831;BME280;42713;42.676;23.352;2024-01-16T04:06:57;93596.22;;;2.42;88.03
56831;BME280;42713;42.676;23.352;2024-01-16T04:09:22;93626.03;;;2.45;87.71
56831;BME280;42713;42.676;23.352;2024-01-16T04:11:51;93614.53;;;2.41;87.53
56831;BME280;42713;42.676;23.352;2024-01-16T04:14:17;93635.97;;;2.41;87.46
56831;BME280;42713;42.676;23.352;2024-01-16T04:16:42;93643.31;;;2.44;86.90
56831;BME280;42713;42.676;23.352;2024-01-16T04:19:08;93632.28;;;2.37;86.72
56831;BME280;42713;42.676;23.352;2024-01-16T04:21:33;93642.59;;;2.37;86.70
56831;BME280;42713;42.676;23.352;2024-01-16T04:23:58;93680.56;;;2.37;85.47
56831;BME280;42713;42.676;23.352;2024-01-16T04:26:24;93656.53;;;2.36;85.36
56831;BME280;42713;42.676;23.352;2024-01-16T04:28:50;93656.38;;;2.31;85.31
56831;BME280;42713;42.676;23.352;2024-01-16T04:31:15;93665.88;;;2.37;85.00
56831;BME280;42713;42.676;23.352;2024-01-16T04:33:42;93688.53;;;2.35;84.48
56831;BME280;42713;42.676;23.352;2024-01-16T04:36:08;93679.78;;;2.36;83.64
56831;BME280;42713;42.676;23.352;2024-01-16T04:38:34;93680.78;;;2.35;83.73
56831;BME280;42713;42.676;23.352;2024-01-16T04:41:03;93681.00;;;2.33;83.08
56831;BME280;42713;42.676;23.352;2024-01-16T04:43:29;93677.84;;;2.31;83.37
56831;BME280;42713;42.676;23.352;2024-01-16T04:45:54;93703.63;;;2.38;82.75
56831;BME280;42713;42.676;23.352;2024-01-16T04:48:20;93701.34;;;2.30;82.54
56831;BME280;42713;42.676;23.352;2024-01-16T04:50:46;93716.97;;;2.35;82.19
56831;BME280;42713;42.676;23.352;2024-01-16T04:53:11;93713.66;;;2.28;81.90
56831;BME280;42713;42.676;23.352;2024-01-16T04:55:37;93728.22;;;2.22;81.75
56831;BME280;42713;42.676;23.352;2024-01-16T04:58:02;93734.25;;;2.16;81.57
56831;BME280;42713;42.676;23.352;2024-01-16T05:00:28;93758.56;;;2.08;81.45
56831;BME280;42713;42.676;23.352;2024-01-16T05:02:54;93755.50;;;1.93;81.44
56831;BME280;42713;42.676;23.352;2024-01-16T05:05:19;93750.03;;;1.82;81.87
56831;BME280;42713;42.676;23.352;2024-01-16T05:07:44;93770.69;;;1.82;82.22
56831;BME280;42713;42.676;23.352;2024-01-16T05:10:11;93793.38;;;1.80;81.74
56831;BME280;42713;42.676;23.352;2024-01-16T05:12:42;93774.72;;;1.78;81.11
56831;BME280;42713;42.676;23.352;2024-01-16T05:15:08;93785.44;;;1.75;80.80
56831;BME280;42713;42.676;23.352;2024-01-16T05:17:34;93790.63;;;1.75;80.46
56831;BME280;42713;42.676;23.352;2024-01-16T05:20:01;93792.19;;;1.76;80.36
56831;BME280;42713;42.676;23.352;2024-01-16T05:22:29;93804.88;;;1.78;80.25
56831;BME280;42713;42.676;23.352;2024-01-16T05:24:54;93818.59;;;1.78;79.99
56831;BME280;42713;42.676;23.352;2024-01-16T05:27:20;93824.19;;;1.75;79.95
56831;BME280;42713;42.676;23.352;2024-01-16T05:29:45;93831.16;;;1.75;80.47
56831;BME280;42713;42.676;23.352;2024-01-16T05:32:13;93841.25;;;1.76;79.97
56831;BME280;42713;42.676;23.352;2024-01-16T05:34:38;93839.03;;;1.80;79.65
56831;BME280;42713;42.676;23.352;2024-01-16T05:37:03;93842.66;;;1.72;79.55
56831;BME280;42713;42.676;23.352;2024-01-16T05:39:29;93855.97;;;1.76;79.58
56831;BME280;42713;42.676;23.352;2024-01-16T05:41:54;93889.94;;;1.73;79.37
56831;BME280;42713;42.676;23.352;2024-01-16T05:44:20;93870.91;;;1.67;79.25
56831;BME280;42713;42.676;23.352;2024-01-16T05:46:45;93871.94;;;1.59;79.50
56831;BME280;42713;42.676;23.352;2024-01-16T05:49:11;93864.56;;;1.63;79.16
56831;BME280;42713;42.676;23.352;2024-01-16T05:51:45;93884.63;;;1.61;78.68
56831;BME280;42713;42.676;23.352;2024-01-16T05:54:11;93918.13;;;1.67;77.68
56831;BME280;42713;42.676;23.352;2024-01-16T05:56:36;93913.59;;;1.63;77.25
56831;BME280;42713;42.676;23.352;2024-01-16T05:59:02;93927.94;;;1.59;76.75
56831;BME280;42713;42.676;23.352;2024-01-16T06:01:27;93933.88;;;1.59;76.16
56831;BME280;42713;42.676;23.352;2024-01-16T06:03:53;93937.06;;;1.54;76.13
56831;BME280;42713;42.676;23.352;2024-01-16T06:06:18;93938.69;;;1.49;76.58
56831;BME280;42713;42.676;23.352;2024-01-16T06:08:45;93943.28;;;1.47;77.02
56831;BME280;42713;42.676;23.352;2024-01-16T06:11:30;93958.31;;;1.50;77.45
56831;BME280;42713;42.676;23.352;2024-01-16T06:13:56;93961.72;;;1.50;77.33
56831;BME280;42713;42.676;23.352;2024-01-16T06:16:22;93968.03;;;1.54;77.39
56831;BME280;42713;42.676;23.352;2024-01-16T06:19:06;93988.69;;;1.54;76.75
56831;BME280;42713;42.676;23.352;2024-01-16T06:21:33;94003.00;;;1.50;76.63
56831;BME280;42713;42.676;23.352;2024-01-16T06:23:58;94015.09;;;1.50;75.82
56831;BME280;42713;42.676;23.352;2024-01-16T06:26:24;93992.09;;;1.48;76.16
56831;BME280;42713;42.676;23.352;2024-01-16T06:28:49;93990.72;;;1.46;75.74
56831;BME280;42713;42.676;23.352;2024-01-16T06:31:16;94000.22;;;1.45;76.01
56831;BME280;42713;42.676;23.352;2024-01-16T06:33:41;94004.59;;;1.45;76.11
56831;BME280;42713;42.676;23.352;2024-01-16T06:36:07;94016.69;;;1.44;74.97
56831;BME280;42713;42.676;23.352;2024-01-16T06:38:32;94007.38;;;1.43;74.64
56831;BME280;42713;42.676;23.352;2024-01-16T06:40:58;94014.94;;;1.38;74.83
56831;BME280;42713;42.676;23.352;2024-01-16T06:43:23;94020.13;;;1.24;74.54
56831;BME280;42713;42.676;23.352;2024-01-16T06:45:49;94022.69;;;1.31;74.56
56831;BME280;42713;42.676;23.352;2024-01-16T06:48:15;94043.53;;;1.30;74.23
56831;BME280;42713;42.676;23.352;2024-01-16T06:50:41;94056.22;;;1.31;74.05
56831;BME280;42713;42.676;23.352;2024-01-16T06:53:07;94049.69;;;1.35;73.23
56831;BME280;42713;42.676;23.352;2024-01-16T06:55:32;94048.88;;;1.35;73.78
56831;BME280;42713;42.676;23.352;2024-01-16T06:57:58;94058.22;;;1.36;72.77
56831;BME280;42713;42.676;23.352;2024-01-16T07:00:25;94074.28;;;1.38;73.46
56831;BME280;42713;42.676;23.352;2024-01-16T07:02:52;94078.84;;;1.36;73.80
56831;BME280;42713;42.676;23.352;2024-01-16T07:05:20;94074.06;;;1.39;73.33
56831;BME280;42713;42.676;23.352;2024-01-16T07:07:45;94081.59;;;1.48;73.33
56831;BME280;42713;42.676;23.352;2024-01-16T07:10:11;94074.28;;;1.51;73.31
56831;BME280;42713;42.676;23.352;2024-01-16T07:12:46;94086.75;;;1.61;72.52
56831;BME280;42713;42.676;23.352;2024-01-16T07:15:13;94109.78;;;1.63;73.10
56831;BME280;42713;42.676;23.352;2024-01-16T07:17:39;94102.25;;;1.54;73.02
56831;BME280;42713;42.676;23.352;2024-01-16T07:20:05;94116.34;;;1.59;73.07
56831;BME280;42713;42.676;23.352;2024-01-16T07:22:30;94120.91;;;1.50;73.27
56831;BME280;42713;42.676;23.352;2024-01-16T07:24:56;94138.59;;;1.39;73.59
56831;BME280;42713;42.676;23.352;2024-01-16T07:27:21;94148.72;;;1.34;73.79
56831;BME280;42713;42.676;23.352;2024-01-16T07:29:47;94162.81;;;1.32;73.34
56831;BME280;42713;42.676;23.352;2024-01-16T07:32:12;94151.50;;;1.26;73.95
56831;BME280;42713;42.676;23.352;2024-01-16T07:34:38;94159.22;;;1.39;74.10
56831;BME280;42713;42.676;23.352;2024-01-16T07:37:03;94166.78;;;1.34;73.84
56831;BME280;42713;42.676;23.352;2024-01-16T07:39:29;94174.91;;;1.38;73.46
56831;BME280;42713;42.676;23.352;2024-01-16T07:41:54;94174.53;;;1.34;73.63
56831;BME280;42713;42.676;23.352;2024-01-16T07:44:20;94176.13;;;1.35;73.43
56831;BME280;42713;42.676;23.352;2024-01-16T07:46:45;94188.22;;;1.35;73.11
56831;BME280;42713;42.676;23.352;2024-01-16T07:49:11;94170.56;;;1.32;73.53
56831;BME280;42713;42.676;23.352;2024-01-16T07:51:36;94188.41;;;1.33;73.78
56831;BME280;42713;42.676;23.352;2024-01-16T07:54:06;94187.22;;;1.36;73.95
56831;BME280;42713;42.676;23.352;2024-01-16T07:56:33;94193.59;;;1.40;73.59
56831;BME280;42713;42.676;23.352;2024-01-16T07:58:59;94191.38;;;1.37;72.80
56831;BME280;42713;42.676;23.352;2024-01-16T08:01:24;94213.81;;;1.43;73.18
56831;BME280;42713;42.676;23.352;2024-01-16T08:03:50;94218.97;;;1.43;72.88
56831;BME280;42713;42.676;23.352;2024-01-16T08:06:15;94214.22;;;1.40;73.08
56831;BME280;42713;42.676;23.352;2024-01-16T08:08:41;94228.31;;;1.51;72.76
56831;BME280;42713;42.676;23.352;2024-01-16T08:11:06;94235.06;;;1.45;72.75
56831;BME280;42713;42.676;23.352;2024-01-16T08:13:33;94216.59;;;1.42;72.33
56831;BME280;42713;42.676;23.352;2024-01-16T08:15:58;94240.63;;;1.49;72.17
56831;BME280;42713;42.676;23.352;2024-01-16T08:18:25;94246.19;;;1.46;72.20
56831;BME280;42713;42.676;23.352;2024-01-16T08:20:50;94255.94;;;1.50;71.84
56831;BME280;42713;42.676;23.352;2024-01-16T08:23:16;94259.69;;;1.54;72.29
56831;BME280;42713;42.676;23.352;2024-01-16T08:25:41;94266.66;;;1.61;71.97
56831;BME280;42713;42.676;23.352;2024-01-16T08:28:07;94268.81;;;1.57;72.00
56831;BME280;42713;42.676;23.352;2024-01-16T08:30:32;94266.44;;;1.49;72.36
56831;BME280;42713;42.676;23.352;2024-01-16T08:32:59;94276.38;;;1.59;71.37
56831;BME280;42713;42.676;23.352;2024-01-16T08:35:25;94276.78;;;1.62;70.20
56831;BME280;42713;42.676;23.352;2024-01-16T08:37:50;94306.16;;;1.54;70.55
56831;BME280;42713;42.676;23.352;2024-01-16T08:40:16;94302.97;;;1.52;70.03
56831;BME280;42713;42.676;23.352;2024-01-16T08:42:42;94304.16;;;1.57;69.60
56831;BME280;42713;42.676;23.352;2024-01-16T08:45:08;94303.16;;;1.51;69.87
56831;BME280;42713;42.676;23.352;2024-01-16T08:47:34;94325.22;;;1.47;69.22
56831;BME280;42713;42.676;23.352;2024-01-16T08:49:59;94320.44;;;1.44;69.76
56831;BME280;42713;42.676;23.352;2024-01-16T08:52:25;94339.69;;;1.41;69.46
56831;BME280;42713;42.676;23.352;2024-01-16T08:54:51;94309.47;;;1.35;69.54
56831;BME280;42713;42.676;23.352;2024-01-16T08:57:16;94307.47;;;1.30;69.68
56831;BME280;42713;42.676;23.352;2024-01-16T08:59:44;94327.75;;;1.33;70.28
56831;BME280;42713;42.676;23.352;2024-01-16T09:02:10;94341.66;;;1.39;69.95
56831;BME280;42713;42.676;23.352;2024-01-16T09:04:35;94333.31;;;1.37;70.21
56831;BME280;42713;42.676;23.352;2024-01-16T09:07:02;94352.94;;;1.31;69.97
56831;BME280;42713;42.676;23.352;2024-01-16T09:09:29;94321.56;;;1.28;69.78
56831;BME280;42713;42.676;23.352;2024-01-16T09:11:55;94333.09;;;1.32;69.77
56831;BME280;42713;42.676;23.352;2024-01-16T09:14:23;94330.34;;;1.40;69.43
56831;BME280;42713;42.676;23.352;2024-01-16T09:16:48;94348.41;;;1.40;69.15
56831;BME280;42713;42.676;23.352;2024-01-16T09:19:14;94339.28;;;1.44;69.59
56831;BME280;42713;42.676;23.352;2024-01-16T09:21:39;94336.13;;;1.55;69.01
56831;BME280;42713;42.676;23.352;2024-01-16T09:24:05;94330.97;;;1.55;68.65
56831;BME280;42713;42.676;23.352;2024-01-16T09:26:30;94344.28;;;1.59;68.10
56831;BME280;42713;42.676;23.352;2024-01-16T09:28:57;94364.16;;;1.72;67.94
56831;BME280;42713;42.676;23.352;2024-01-16T09:31:22;94349.25;;;1.67;67.84
56831;BME280;42713;42.676;23.352;2024-01-16T09:33:48;94355.84;;;1.70;68.20
56831;BME280;42713;42.676;23.352;2024-01-16T09:36:14;94338.94;;;1.74;67.96
56831;BME280;42713;42.676;23.352;2024-01-16T09:38:40;94352.06;;;1.79;67.70
56831;BME280;42713;42.676;23.352;2024-01-16T09:41:06;94332.22;;;1.80;67.67
56831;BME280;42713;42.676;23.352;2024-01-16T09:43:32;94341.75;;;1.93;66.38
56831;BME280;42713;42.676;23.352;2024-01-16T09:46:00;94352.50;;;2.03;65.99
56831;BME280;42713;42.676;23.352;2024-01-16T09:48:28;94346.34;;;2.04;66.50
56831;BME280;42713;42.676;23.352;2024-01-16T09:50:55;94342.75;;;2.05;65.56
56831;BME280;42713;42.676;23.352;2024-01-16T09:53:21;94357.44;;;1.91;65.56
56831;BME280;42713;42.676;23.352;2024-01-16T09:55:49;94360.63;;;1.93;65.98
56831;BME280;42713;42.676;23.352;2024-01-16T09:58:17;94364.00;;;1.94;65.65
56831;BME280;42713;42.676;23.352;2024-01-16T10:00:44;94357.84;;;1.95;65.84
56831;BME280;42713;42.676;23.352;2024-01-16T10:03:12;94359.84;;;2.06;64.77
56831;BME280;42713;42.676;23.352;2024-01-16T10:05:40;94365.38;;;1.96;64.71
56831;BME280;42713;42.676;23.352;2024-01-16T10:08:06;94349.28;;;1.74;64.56
56831;BME280;42713;42.676;23.352;2024-01-16T10:10:38;94344.31;;;1.73;64.60
56831;BME280;42713;42.676;23.352;2024-01-16T10:13:05;94346.91;;;1.79;64.52
56831;BME280;42713;42.676;23.352;2024-01-16T10:15:35;94359.66;;;1.94;64.51
56831;BME280;42713;42.676;23.352;2024-01-16T10:18:01;94337.56;;;1.92;64.29
56831;BME280;42713;42.676;23.352;2024-01-16T10:20:36;94335.22;;;1.97;63.64
56831;BME280;42713;42.676;23.352;2024-01-16T10:23:05;94325.66;;;1.97;63.03
56831;BME280;42713;42.676;23.352;2024-01-16T10:25:31;94358.88;;;2.14;62.93
56831;BME280;42713;42.676;23.352;2024-01-16T10:28:04;94346.34;;;2.11;62.59
56831;BME280;42713;42.676;23.352;2024-01-16T10:30:31;94338.00;;;2.22;62.71
56831;BME280;42713;42.676;23.352;2024-01-16T10:33:12;94374.16;;;2.36;61.00
56831;BME280;42713;42.676;23.352;2024-01-16T10:35:38;94337.59;;;2.18;61.75
56831;BME280;42713;42.676;23.352;2024-01-16T10:38:03;94350.91;;;2.15;61.50
56831;BME280;42713;42.676;23.352;2024-01-16T10:40:29;94346.94;;;1.99;61.81
56831;BME280;42713;42.676;23.352;2024-01-16T10:43:00;94358.47;;;2.10;62.21
56831;BME280;42713;42.676;23.352;2024-01-16T10:45:26;94363.03;;;2.08;61.74
56831;BME280;42713;42.676;23.352;2024-01-16T10:48:03;94359.06;;;2.19;62.17
56831;BME280;42713;42.676;23.352;2024-01-16T10:50:29;94351.50;;;2.17;62.09
56831;BME280;42713;42.676;23.352;2024-01-16T10:52:55;94351.09;;;2.34;62.37
56831;BME280;42713;42.676;23.352;2024-01-16T10:55:24;94358.66;;;2.49;61.58
56831;BME280;42713;42.676;23.352;2024-01-16T10:57:50;94348.53;;;2.54;61.00
56831;BME280;42713;42.676;23.352;2024-01-16T11:00:20;94354.41;;;2.82;61.00
56831;BME280;42713;42.676;23.352;2024-01-16T11:02:58;94343.69;;;2.85;60.23
56831;BME280;42713;42.676;23.352;2024-01-16T11:05:25;94340.50;;;2.76;59.19
56831;BME280;42713;42.676;23.352;2024-01-16T11:07:54;94366.72;;;2.93;59.17
56831;BME280;42713;42.676;23.352;2024-01-16T11:10:22;94347.25;;;2.84;59.69
56831;BME280;42713;42.676;23.352;2024-01-16T11:12:51;94359.59;;;2.88;59.62
56831;BME280;42713;42.676;23.352;2024-01-16T11:15:21;94367.72;;;2.92;59.60
56831;BME280;42713;42.676;23.352;2024-01-16T11:17:47;94384.69;;;2.74;59.90
56831;BME280;42713;42.676;23.352;2024-01-16T11:20:13;94376.97;;;2.54;60.68
56831;BME280;42713;42.676;23.352;2024-01-16T11:22:42;94403.38;;;2.63;59.22
56831;BME280;42713;42.676;23.352;2024-01-16T11:25:13;94383.72;;;2.48;59.86
56831;BME280;42713;42.676;23.352;2024-01-16T11:27:41;94360.25;;;2.57;59.86
56831;BME280;42713;42.676;23.352;2024-01-16T11:30:09;94360.03;;;2.65;59.70
56831;BME280;42713;42.676;23.352;2024-01-16T11:32:40;94357.66;;;2.63;60.17
56831;BME280;42713;42.676;23.352;2024-01-16T11:35:11;94355.84;;;2.71;60.34
56831;BME280;42713;42.676;23.352;2024-01-16T11:37:40;94373.53;;;2.80;60.88
56831;BME280;42713;42.676;23.352;2024-01-16T11:42:53;94353.25;;;2.71;59.74
56831;BME280;42713;42.676;23.352;2024-01-16T11:48:14;94360.25;;;2.50;60.45
56831;BME280;42713;42.676;23.352;2024-01-16T11:50:42;94365.81;;;2.60;60.35
56831;BME280;42713;42.676;23.352;2024-01-16T11:53:08;94383.47;;;2.70;60.35
56831;BME280;42713;42.676;23.352;2024-01-16T11:56:11;94413.56;;;2.64;60.20
56831;BME280;42713;42.676;23.352;2024-01-16T12:01:41;94395.44;;;2.51;61.65
56831;BME280;42713;42.676;23.352;2024-01-16T12:04:08;94382.13;;;2.34;61.81
56831;BME280;42713;42.676;23.352;2024-01-16T12:06:37;94371.78;;;2.27;61.75
56831;BME280;42713;42.676;23.352;2024-01-16T12:09:13;94394.25;;;2.33;61.21
56831;BME280;42713;42.676;23.352;2024-01-16T12:11:42;94404.00;;;2.31;60.99
56831;BME280;42713;42.676;23.352;2024-01-16T12:14:14;94400.22;;;2.34;61.15
56831;BME280;42713;42.676;23.352;2024-01-16T12:16:40;94413.72;;;2.36;61.26
56831;BME280;42713;42.676;23.352;2024-01-16T12:19:10;94419.91;;;2.35;62.48
56831;BME280;42713;42.676;23.352;2024-01-16T12:21:46;94417.47;;;2.13;63.07
56831;BME280;42713;42.676;23.352;2024-01-16T12:24:30;94419.88;;;2.15;63.40
56831;BME280;42713;42.676;23.352;2024-01-16T12:26:59;94401.00;;;2.14;63.43
56831;BME280;42713;42.676;23.352;2024-01-16T12:29:29;94414.50;;;2.16;62.91
56831;BME280;42713;42.676;23.352;2024-01-16T12:32:12;94400.19;;;2.21;63.16
56831;BME280;42713;42.676;23.352;2024-01-16T12:34:45;94424.28;;;2.28;62.77
56831;BME280;42713;42.676;23.352;2024-01-16T12:37:11;94430.63;;;2.45;63.05
56831;BME280;42713;42.676;23.352;2024-01-16T12:39:38;94419.50;;;2.25;63.24
56831;BME280;42713;42.676;23.352;2024-01-16T12:42:10;94399.41;;;2.13;63.36
56831;BME280;42713;42.676;23.352;2024-01-16T12:44:37;94423.06;;;2.17;63.82
56831;BME280;42713;42.676;23.352;2024-01-16T12:47:03;94438.78;;;2.22;63.61
56831;BME280;42713;42.676;23.352;2024-01-16T12:49:30;94431.22;;;2.27;63.79
56831;BME280;42713;42.676;23.352;2024-01-16T12:52:28;94412.13;;;2.22;61.80
56831;BME280;42713;42.676;23.352;2024-01-16T12:54:59;94419.50;;;2.31;62.16
56831;BME280;42713;42.676;23.352;2024-01-16T12:57:27;94422.88;;;2.32;62.32
56831;BME280;42713;42.676;23.352;2024-01-16T12:59:58;94412.16;;;2.48;61.96
56831;BME280;42713;42.676;23.352;2024-01-16T13:02:26;94423.28;;;2.69;61.99
56831;BME280;42713;42.676;23.352;2024-01-16T13:05:00;94439.59;;;2.76;61.34
56831;BME280;42713;42.676;23.352;2024-01-16T13:07:28;94411.16;;;2.36;61.46